sensor_id;sensor_type;location;lat;lon;timestamp;pressure;altitude;pressure_sealevel;temperature;humidity
63321;BME280;49449;48.800;9.534;2023-07-02T00:00:08;97977.22;;;18.35;46.43
63321;BME280;49449;48.800;9.534;2023-07-02T00:02:37;97977.63;;;18.42;45.91
63321;BME280;49449;48.800;9.534;2023-07-02T00:05:05;97969.03;;;18.45;45.87
63321;BME280;49449;48.800;9.534;2023-07-02T00:07:34;97963.28;;;18.38;45.86
63321;BME280;49449;48.800;9.534;2023-07-02T00:10:03;97964.00;;;18.25;45.87
63321;BME280;49449;48.800;9.534;2023-07-02T00:12:32;97964.94;;;18.15;45.59
63321;BME280;49449;48.800;9.534;2023-07-02T00:15:00;97968.13;;;18.17;45.34
63321;BME280;49449;48.800;9.534;2023-07-02T00:17:29;97971.25;;;18.05;45.58
63321;BME280;49449;48.800;9.534;2023-07-02T00:19:57;97978.63;;;17.94;45.55
63321;BME280;49449;48.800;9.534;2023-07-02T00:22:29;97978.81;;;17.98;45.50
63321;BME280;49449;48.800;9.534;2023-07-02T00:24:57;97979.75;;;17.88;45.60
63321;BME280;49449;48.800;9.534;2023-07-02T00:27:25;97985.91;;;17.89;45.66
63321;BME280;49449;48.800;9.534;2023-07-02T00:29:53;97991.34;;;17.84;45.57
63321;BME280;49449;48.800;9.534;2023-07-02T00:32:21;97995.13;;;17.77;45.65
63321;BME280;49449;48.800;9.534;2023-07-02T00:34:50;97991.91;;;17.81;45.63
63321;BME280;49449;48.800;9.534;2023-07-02T00:37:18;97983.88;;;17.81;45.61
63321;BME280;49449;48.800;9.534;2023-07-02T00:39:45;97994.56;;;17.81;45.06
63321;BME280;49449;48.800;9.534;2023-07-02T00:42:13;97987.19;;;17.72;45.46
63321;BME280;49449;48.800;9.534;2023-07-02T00:44:42;97990.47;;;17.69;45.59
63321;BME280;49449;48.800;9.534;2023-07-02T00:47:11;97987.28;;;17.67;45.81
63321;BME280;49449;48.800;9.534;2023-07-02T00:49:40;97995.22;;;17.53;45.52
63321;BME280;49449;48.800;9.534;2023-07-02T00:52:09;97987.19;;;17.53;45.86
63321;BME280;49449;48.800;9.534;2023-07-02T00:54:38;97996.03;;;17.49;45.86
63321;BME280;49449;48.800;9.534;2023-07-02T00:57:07;97988.50;;;17.51;45.68
63321;BME280;49449;48.800;9.534;2023-07-02T00:59:35;97992.91;;;17.41;46.17
63321;BME280;49449;48.800;9.534;2023-07-02T01:02:04;97989.16;;;17.42;46.50
63321;BME280;49449;48.800;9.534;2023-07-02T01:04:32;97984.84;;;17.47;46.00
63321;BME280;49449;48.800;9.534;2023-07-02T01:07:00;97985.34;;;17.49;46.43
63321;BME280;49449;48.800;9.534;2023-07-02T01:09:30;97983.94;;;17.32;46.45
63321;BME280;49449;48.800;9.534;2023-07-02T01:12:00;97978.94;;;17.26;46.59
63321;BME280;49449;48.800;9.534;2023-07-02T01:14:32;97992.28;;;17.26;46.66
63321;BME280;49449;48.800;9.534;2023-07-02T01:17:01;97991.28;;;17.21;46.84
63321;BME280;49449;48.800;9.534;2023-07-02T01:19:42;97988.25;;;17.28;46.14
63321;BME280;49449;48.800;9.534;2023-07-02T01:22:11;97989.34;;;17.27;46.22
63321;BME280;49449;48.800;9.534;2023-07-02T01:24:40;97986.13;;;17.30;45.90
63321;BME280;49449;48.800;9.534;2023-07-02T01:27:08;97987.97;;;17.30;45.78
63321;BME280;49449;48.800;9.534;2023-07-02T01:29:36;97987.75;;;17.26;46.17
63321;BME280;49449;48.800;9.534;2023-07-02T01:32:05;97989.19;;;17.18;46.25
63321;BME280;49449;48.800;9.534;2023-07-02T01:34:33;97988.84;;;17.25;45.96
63321;BME280;49449;48.800;9.534;2023-07-02T01:37:04;97981.13;;;17.23;46.12
63321;BME280;49449;48.800;9.534;2023-07-02T01:39:33;97986.69;;;17.27;45.78
63321;BME280;49449;48.800;9.534;2023-07-02T01:42:08;97981.34;;;17.27;45.92
63321;BME280;49449;48.800;9.534;2023-07-02T01:44:36;97986.69;;;17.27;46.19
63321;BME280;49449;48.800;9.534;2023-07-02T01:47:05;98001.16;;;17.21;46.33
63321;BME280;49449;48.800;9.534;2023-07-02T01:49:33;98003.09;;;17.15;46.27
63321;BME280;49449;48.800;9.534;2023-07-02T01:52:02;98002.84;;;17.12;46.28
63321;BME280;49449;48.800;9.534;2023-07-02T01:54:32;98014.72;;;17.00;46.04
63321;BME280;49449;48.800;9.534;2023-07-02T01:57:01;98011.19;;;17.05;46.01
63321;BME280;49449;48.800;9.534;2023-07-02T01:59:29;98002.84;;;17.12;45.96
63321;BME280;49449;48.800;9.534;2023-07-02T02:01:56;97994.78;;;17.17;45.50
63321;BME280;49449;48.800;9.534;2023-07-02T02:04:24;97993.72;;;17.18;45.87
63321;BME280;49449;48.800;9.534;2023-07-02T02:06:52;97987.13;;;17.34;45.27
63321;BME280;49449;48.800;9.534;2023-07-02T02:09:22;97987.34;;;17.38;44.95
63321;BME280;49449;48.800;9.534;2023-07-02T02:11:50;97989.00;;;17.34;45.00
63321;BME280;49449;48.800;9.534;2023-07-02T02:14:18;97991.97;;;17.32;45.19
63321;BME280;49449;48.800;9.534;2023-07-02T02:16:46;98005.47;;;17.17;45.58
63321;BME280;49449;48.800;9.534;2023-07-02T02:19:14;97996.97;;;17.15;45.60
63321;BME280;49449;48.800;9.534;2023-07-02T02:21:42;97998.63;;;17.11;46.04
63321;BME280;49449;48.800;9.534;2023-07-02T02:24:10;98006.66;;;17.06;45.82
63321;BME280;49449;48.800;9.534;2023-07-02T02:26:39;98005.44;;;16.93;46.04
63321;BME280;49449;48.800;9.534;2023-07-02T02:29:08;98011.59;;;16.93;45.75
63321;BME280;49449;48.800;9.534;2023-07-02T02:31:35;98003.97;;;16.81;46.21
63321;BME280;49449;48.800;9.534;2023-07-02T02:34:03;98010.59;;;16.84;45.95
63321;BME280;49449;48.800;9.534;2023-07-02T02:36:31;98009.50;;;16.90;45.87
63321;BME280;49449;48.800;9.534;2023-07-02T02:38:59;98006.81;;;16.90;45.77
63321;BME280;49449;48.800;9.534;2023-07-02T02:41:27;98003.38;;;16.90;45.75
63321;BME280;49449;48.800;9.534;2023-07-02T02:43:56;98001.22;;;16.92;46.12
63321;BME280;49449;48.800;9.534;2023-07-02T02:46:24;98000.56;;;17.00;45.67
63321;BME280;49449;48.800;9.534;2023-07-02T02:48:52;98010.00;;;16.92;45.78
63321;BME280;49449;48.800;9.534;2023-07-02T02:51:20;98004.84;;;17.01;45.51
63321;BME280;49449;48.800;9.534;2023-07-02T02:53:48;98002.16;;;17.01;45.53
63321;BME280;49449;48.800;9.534;2023-07-02T02:56:16;97993.44;;;16.95;45.71
63321;BME280;49449;48.800;9.534;2023-07-02T02:58:44;97996.94;;;16.91;45.77
63321;BME280;49449;48.800;9.534;2023-07-02T03:01:13;98001.44;;;16.95;45.80
63321;BME280;49449;48.800;9.534;2023-07-02T03:03:41;98000.38;;;16.91;45.98
63321;BME280;49449;48.800;9.534;2023-07-02T03:06:12;98012.94;;;16.91;45.85
63321;BME280;49449;48.800;9.534;2023-07-02T03:08:41;98004.94;;;16.91;46.03
63321;BME280;49449;48.800;9.534;2023-07-02T03:11:09;98004.47;;;16.83;46.16
63321;BME280;49449;48.800;9.534;2023-07-02T03:13:36;98009.50;;;16.90;45.92
63321;BME280;49449;48.800;9.534;2023-07-02T03:16:06;98004.75;;;16.82;46.13
63321;BME280;49449;48.800;9.534;2023-07-02T03:18:35;98010.91;;;16.82;46.06
63321;BME280;49449;48.800;9.534;2023-07-02T03:21:03;98013.00;;;16.85;46.02
63321;BME280;49449;48.800;9.534;2023-07-02T03:23:31;98004.88;;;16.96;45.62
63321;BME280;49449;48.800;9.534;2023-07-02T03:25:59;98007.47;;;17.06;45.43
63321;BME280;49449;48.800;9.534;2023-07-02T03:28:26;98007.19;;;17.08;45.45
63321;BME280;49449;48.800;9.534;2023-07-02T03:30:54;98015.41;;;17.11;45.45
63321;BME280;49449;48.800;9.534;2023-07-02T03:33:22;98021.88;;;17.05;45.85
63321;BME280;49449;48.800;9.534;2023-07-02T03:35:51;98021.69;;;16.96;46.07
63321;BME280;49449;48.800;9.534;2023-07-02T03:38:19;98029.69;;;16.96;46.20
63321;BME280;49449;48.800;9.534;2023-07-02T03:40:47;98034.69;;;17.03;45.85
63321;BME280;49449;48.800;9.534;2023-07-02T03:43:15;98037.28;;;17.13;45.78
63321;BME280;49449;48.800;9.534;2023-07-02T03:45:43;98039.66;;;17.15;45.70
63321;BME280;49449;48.800;9.534;2023-07-02T03:48:10;98035.22;;;17.05;46.09
63321;BME280;49449;48.800;9.534;2023-07-02T03:50:38;98045.56;;;17.12;45.75
63321;BME280;49449;48.800;9.534;2023-07-02T03:53:07;98054.25;;;17.22;45.98
63321;BME280;49449;48.800;9.534;2023-07-02T03:55:36;98064.88;;;17.28;45.68
63321;BME280;49449;48.800;9.534;2023-07-02T03:58:05;98074.22;;;17.30;45.82
63321;BME280;49449;48.800;9.534;2023-07-02T04:00:33;98079.00;;;17.28;46.07
63321;BME280;49449;48.800;9.534;2023-07-02T04:03:01;98088.06;;;17.32;46.00
63321;BME280;49449;48.800;9.534;2023-07-02T04:05:29;98092.81;;;17.35;45.63
63321;BME280;49449;48.800;9.534;2023-07-02T04:07:57;98093.63;;;17.36;45.42
63321;BME280;49449;48.800;9.534;2023-07-02T04:10:27;98096.59;;;17.34;45.25
63321;BME280;49449;48.800;9.534;2023-07-02T04:12:55;98095.91;;;17.23;45.26
63321;BME280;49449;48.800;9.534;2023-07-02T04:15:22;98096.03;;;17.08;44.76
63321;BME280;49449;48.800;9.534;2023-07-02T04:17:51;98098.47;;;17.04;45.60
63321;BME280;49449;48.800;9.534;2023-07-02T04:20:19;98106.47;;;17.04;45.28
63321;BME280;49449;48.800;9.534;2023-07-02T04:22:47;98111.81;;;17.04;45.28
63321;BME280;49449;48.800;9.534;2023-07-02T04:25:15;98117.50;;;16.93;45.69
63321;BME280;49449;48.800;9.534;2023-07-02T04:27:44;98118.84;;;16.95;45.67
63321;BME280;49449;48.800;9.534;2023-07-02T04:30:12;98115.75;;;16.78;45.94
63321;BME280;49449;48.800;9.534;2023-07-02T04:32:40;98119.19;;;16.83;45.88
63321;BME280;49449;48.800;9.534;2023-07-02T04:35:09;98121.84;;;16.83;46.13
63321;BME280;49449;48.800;9.534;2023-07-02T04:37:37;98122.72;;;16.74;46.61
63321;BME280;49449;48.800;9.534;2023-07-02T04:40:06;98131.88;;;16.57;46.09
63321;BME280;49449;48.800;9.534;2023-07-02T04:42:36;98127.59;;;16.61;45.36
63321;BME280;49449;48.800;9.534;2023-07-02T04:45:07;98127.81;;;16.70;46.38
63321;BME280;49449;48.800;9.534;2023-07-02T04:47:35;98137.16;;;16.67;46.27
63321;BME280;49449;48.800;9.534;2023-07-02T04:50:03;98135.88;;;16.60;46.58
63321;BME280;49449;48.800;9.534;2023-07-02T04:52:32;98129.50;;;16.51;46.97
63321;BME280;49449;48.800;9.534;2023-07-02T04:55:02;98132.47;;;16.49;46.94
63321;BME280;49449;48.800;9.534;2023-07-02T04:57:30;98123.91;;;16.52;46.67
63321;BME280;49449;48.800;9.534;2023-07-02T04:59:58;98137.34;;;16.37;46.59
63321;BME280;49449;48.800;9.534;2023-07-02T05:02:27;98138.50;;;16.15;47.13
63321;BME280;49449;48.800;9.534;2023-07-02T05:04:55;98145.97;;;16.18;47.04
63321;BME280;49449;48.800;9.534;2023-07-02T05:07:23;98141.88;;;16.36;46.88
63321;BME280;49449;48.800;9.534;2023-07-02T05:09:50;98142.59;;;16.47;46.52
63321;BME280;49449;48.800;9.534;2023-07-02T05:12:19;98137.03;;;16.43;46.29
63321;BME280;49449;48.800;9.534;2023-07-02T05:14:47;98146.06;;;16.53;46.36
63321;BME280;49449;48.800;9.534;2023-07-02T05:17:15;98138.91;;;16.43;46.97
63321;BME280;49449;48.800;9.534;2023-07-02T05:19:44;98138.63;;;16.44;47.00
63321;BME280;49449;48.800;9.534;2023-07-02T05:22:11;98156.16;;;16.51;47.08
63321;BME280;49449;48.800;9.534;2023-07-02T05:24:39;98157.75;;;16.57;46.76
63321;BME280;49449;48.800;9.534;2023-07-02T05:27:08;98158.28;;;16.54;47.24
63321;BME280;49449;48.800;9.534;2023-07-02T05:29:35;98153.47;;;16.56;46.77
63321;BME280;49449;48.800;9.534;2023-07-02T05:32:04;98164.38;;;16.59;47.37
63321;BME280;49449;48.800;9.534;2023-07-02T05:34:32;98159.00;;;16.70;46.83
63321;BME280;49449;48.800;9.534;2023-07-02T05:37:01;98161.41;;;16.66;46.40
63321;BME280;49449;48.800;9.534;2023-07-02T05:39:29;98159.75;;;16.80;46.65
63321;BME280;49449;48.800;9.534;2023-07-02T05:41:57;98167.47;;;16.82;46.17
63321;BME280;49449;48.800;9.534;2023-07-02T05:44:25;98173.03;;;16.91;45.84
63321;BME280;49449;48.800;9.534;2023-07-02T05:46:52;98169.50;;;17.00;45.59
63321;BME280;49449;48.800;9.534;2023-07-02T05:49:21;98179.41;;;16.95;45.65
63321;BME280;49449;48.800;9.534;2023-07-02T05:51:49;98179.34;;;17.00;45.91
63321;BME280;49449;48.800;9.534;2023-07-02T05:54:18;98181.34;;;17.18;45.57
63321;BME280;49449;48.800;9.534;2023-07-02T05:56:46;98167.28;;;17.37;44.78
63321;BME280;49449;48.800;9.534;2023-07-02T05:59:13;98168.44;;;17.60;44.67
63321;BME280;49449;48.800;9.534;2023-07-02T06:01:44;98173.44;;;17.67;44.44
63321;BME280;49449;48.800;9.534;2023-07-02T06:04:12;98175.50;;;17.75;44.15
63321;BME280;49449;48.800;9.534;2023-07-02T06:06:40;98182.28;;;17.91;43.92
63321;BME280;49449;48.800;9.534;2023-07-02T06:09:07;98179.25;;;17.98;42.62
63321;BME280;49449;48.800;9.534;2023-07-02T06:11:37;98171.41;;;18.07;42.64
63321;BME280;49449;48.800;9.534;2023-07-02T06:14:04;98183.06;;;18.16;42.91
63321;BME280;49449;48.800;9.534;2023-07-02T06:16:32;98177.91;;;18.25;42.78
63321;BME280;49449;48.800;9.534;2023-07-02T06:19:00;98181.34;;;18.25;42.45
63321;BME280;49449;48.800;9.534;2023-07-02T06:21:28;98180.72;;;18.33;42.41
63321;BME280;49449;48.800;9.534;2023-07-02T06:23:57;98186.22;;;18.42;42.40
63321;BME280;49449;48.800;9.534;2023-07-02T06:26:25;98174.50;;;18.57;42.51
63321;BME280;49449;48.800;9.534;2023-07-02T06:28:54;98177.13;;;18.62;42.09
63321;BME280;49449;48.800;9.534;2023-07-02T06:31:23;98181.41;;;18.82;41.66
63321;BME280;49449;48.800;9.534;2023-07-02T06:33:51;98186.75;;;18.82;41.29
63321;BME280;49449;48.800;9.534;2023-07-02T06:36:19;98177.91;;;19.01;40.52
63321;BME280;49449;48.800;9.534;2023-07-02T06:38:46;98177.22;;;19.28;40.34
63321;BME280;49449;48.800;9.534;2023-07-02T06:41:14;98183.31;;;19.47;39.00
63321;BME280;49449;48.800;9.534;2023-07-02T06:43:42;98186.19;;;19.51;39.82
63321;BME280;49449;48.800;9.534;2023-07-02T06:46:12;98187.09;;;19.60;38.56
63321;BME280;49449;48.800;9.534;2023-07-02T06:48:40;98186.75;;;19.67;38.63
63321;BME280;49449;48.800;9.534;2023-07-02T06:51:07;98173.56;;;19.84;37.92
63321;BME280;49449;48.800;9.534;2023-07-02T06:53:35;98182.00;;;19.92;37.57
63321;BME280;49449;48.800;9.534;2023-07-02T06:56:04;98178.31;;;20.01;37.09
63321;BME280;49449;48.800;9.534;2023-07-02T06:58:31;98184.47;;;20.02;37.25
63321;BME280;49449;48.800;9.534;2023-07-02T07:00:59;98185.16;;;20.08;37.29
63321;BME280;49449;48.800;9.534;2023-07-02T07:03:28;98189.22;;;20.19;37.14
63321;BME280;49449;48.800;9.534;2023-07-02T07:05:56;98191.50;;;20.12;35.55
63321;BME280;49449;48.800;9.534;2023-07-02T07:08:24;98196.00;;;20.02;36.22
63321;BME280;49449;48.800;9.534;2023-07-02T07:10:51;98194.69;;;20.00;36.43
63321;BME280;49449;48.800;9.534;2023-07-02T07:13:19;98188.13;;;19.92;36.15
63321;BME280;49449;48.800;9.534;2023-07-02T07:15:47;98193.09;;;19.85;36.27
63321;BME280;49449;48.800;9.534;2023-07-02T07:18:15;98193.97;;;19.66;35.76
63321;BME280;49449;48.800;9.534;2023-07-02T07:20:46;98196.44;;;19.63;35.86
63321;BME280;49449;48.800;9.534;2023-07-02T07:23:15;98205.34;;;19.58;35.81
63321;BME280;49449;48.800;9.534;2023-07-02T07:25:43;98190.06;;;19.59;35.98
63321;BME280;49449;48.800;9.534;2023-07-02T07:28:11;98197.03;;;19.60;36.07
63321;BME280;49449;48.800;9.534;2023-07-02T07:30:42;98192.25;;;19.57;35.65
63321;BME280;49449;48.800;9.534;2023-07-02T07:33:10;98201.16;;;19.52;35.97
63321;BME280;49449;48.800;9.534;2023-07-02T07:35:38;98203.06;;;19.52;35.82
63321;BME280;49449;48.800;9.534;2023-07-02T07:38:07;98206.16;;;19.59;35.56
63321;BME280;49449;48.800;9.534;2023-07-02T07:40:35;98206.38;;;19.62;35.28
63321;BME280;49449;48.800;9.534;2023-07-02T07:43:02;98205.06;;;19.60;35.46
63321;BME280;49449;48.800;9.534;2023-07-02T07:45:30;98200.63;;;19.69;35.16
63321;BME280;49449;48.800;9.534;2023-07-02T07:47:58;98205.13;;;19.74;35.00
63321;BME280;49449;48.800;9.534;2023-07-02T07:50:26;98196.75;;;19.75;35.09
63321;BME280;49449;48.800;9.534;2023-07-02T07:52:54;98199.63;;;19.79;34.26
63321;BME280;49449;48.800;9.534;2023-07-02T07:55:23;98204.91;;;19.84;35.02
63321;BME280;49449;48.800;9.534;2023-07-02T07:57:51;98208.19;;;19.81;34.72
63321;BME280;49449;48.800;9.534;2023-07-02T08:00:19;98203.72;;;19.76;34.41
63321;BME280;49449;48.800;9.534;2023-07-02T08:02:47;98206.28;;;19.67;34.62
63321;BME280;49449;48.800;9.534;2023-07-02T08:05:15;98209.75;;;19.68;34.77
63321;BME280;49449;48.800;9.534;2023-07-02T08:07:42;98206.56;;;19.66;34.46
63321;BME280;49449;48.800;9.534;2023-07-02T08:10:10;98197.75;;;19.65;34.66
63321;BME280;49449;48.800;9.534;2023-07-02T08:12:39;98204.09;;;19.70;34.21
63321;BME280;49449;48.800;9.534;2023-07-02T08:15:08;98199.16;;;19.77;34.56
63321;BME280;49449;48.800;9.534;2023-07-02T08:17:35;98199.31;;;19.66;34.20
63321;BME280;49449;48.800;9.534;2023-07-02T08:20:04;98204.03;;;19.56;34.64
63321;BME280;49449;48.800;9.534;2023-07-02T08:22:35;98207.00;;;19.87;34.58
63321;BME280;49449;48.800;9.534;2023-07-02T08:25:04;98205.69;;;19.98;35.38
63321;BME280;49449;48.800;9.534;2023-07-02T08:27:32;98201.34;;;20.02;34.61
63321;BME280;49449;48.800;9.534;2023-07-02T08:30:01;98200.53;;;20.16;34.10
63321;BME280;49449;48.800;9.534;2023-07-02T08:32:29;98207.97;;;20.19;33.86
63321;BME280;49449;48.800;9.534;2023-07-02T08:34:59;98212.09;;;20.30;34.30
63321;BME280;49449;48.800;9.534;2023-07-02T08:37:26;98211.66;;;20.37;33.15
63321;BME280;49449;48.800;9.534;2023-07-02T08:39:54;98202.50;;;20.52;33.04
63321;BME280;49449;48.800;9.534;2023-07-02T08:42:22;98207.16;;;20.60;33.05
63321;BME280;49449;48.800;9.534;2023-07-02T08:44:53;98208.72;;;20.75;32.58
63321;BME280;49449;48.800;9.534;2023-07-02T08:47:22;98205.50;;;20.87;32.01
63321;BME280;49449;48.800;9.534;2023-07-02T08:49:50;98206.78;;;20.89;31.64
63321;BME280;49449;48.800;9.534;2023-07-02T08:52:18;98202.41;;;20.93;31.11
63321;BME280;49449;48.800;9.534;2023-07-02T08:54:46;98208.09;;;21.14;31.37
63321;BME280;49449;48.800;9.534;2023-07-02T08:57:14;98204.66;;;21.23;31.60
63321;BME280;49449;48.800;9.534;2023-07-02T08:59:42;98206.88;;;21.21;30.91
63321;BME280;49449;48.800;9.534;2023-07-02T09:02:10;98206.44;;;21.27;31.14
63321;BME280;49449;48.800;9.534;2023-07-02T09:04:39;98201.16;;;21.45;30.92
63321;BME280;49449;48.800;9.534;2023-07-02T09:07:07;98199.41;;;21.63;30.62
63321;BME280;49449;48.800;9.534;2023-07-02T09:09:44;98190.69;;;21.66;30.89
63321;BME280;49449;48.800;9.534;2023-07-02T09:12:22;98199.13;;;21.82;29.99
63321;BME280;49449;48.800;9.534;2023-07-02T09:15:00;98201.34;;;21.80;28.72
63321;BME280;49449;48.800;9.534;2023-07-02T09:17:29;98198.84;;;21.83;29.06
63321;BME280;49449;48.800;9.534;2023-07-02T09:20:00;98197.31;;;21.91;29.19
63321;BME280;49449;48.800;9.534;2023-07-02T09:22:31;98194.78;;;21.95;28.89
63321;BME280;49449;48.800;9.534;2023-07-02T09:24:59;98195.88;;;21.93;28.98
63321;BME280;49449;48.800;9.534;2023-07-02T09:27:34;98190.66;;;21.97;28.40
63321;BME280;49449;48.800;9.534;2023-07-02T09:30:08;98194.38;;;22.19;28.87
63321;BME280;49449;48.800;9.534;2023-07-02T09:32:36;98196.91;;;22.15;28.05
63321;BME280;49449;48.800;9.534;2023-07-02T09:35:06;98193.53;;;22.09;28.29
63321;BME280;49449;48.800;9.534;2023-07-02T09:37:34;98199.69;;;22.01;28.03
63321;BME280;49449;48.800;9.534;2023-07-02T09:40:02;98189.47;;;22.12;28.30
63321;BME280;49449;48.800;9.534;2023-07-02T09:42:34;98190.63;;;22.28;28.31
63321;BME280;49449;48.800;9.534;2023-07-02T09:45:02;98189.81;;;22.19;27.31
63321;BME280;49449;48.800;9.534;2023-07-02T09:47:32;98179.69;;;22.25;26.86
63321;BME280;49449;48.800;9.534;2023-07-02T09:50:03;98191.63;;;22.01;26.86
63321;BME280;49449;48.800;9.534;2023-07-02T09:52:34;98185.41;;;22.32;27.16
63321;BME280;49449;48.800;9.534;2023-07-02T09:55:03;98184.94;;;22.39;27.02
63321;BME280;49449;48.800;9.534;2023-07-02T09:57:31;98181.75;;;22.45;26.53
63321;BME280;49449;48.800;9.534;2023-07-02T10:00:00;98176.22;;;22.24;27.18
63321;BME280;49449;48.800;9.534;2023-07-02T10:02:28;98175.56;;;22.19;26.69
63321;BME280;49449;48.800;9.534;2023-07-02T10:04:56;98174.28;;;22.16;25.98
63321;BME280;49449;48.800;9.534;2023-07-02T10:07:28;98175.88;;;22.17;26.83
63321;BME280;49449;48.800;9.534;2023-07-02T10:09:58;98173.53;;;22.24;26.78
63321;BME280;49449;48.800;9.534;2023-07-02T10:12:27;98176.53;;;22.23;27.15
63321;BME280;49449;48.800;9.534;2023-07-02T10:14:56;98181.59;;;22.33;26.98
63321;BME280;49449;48.800;9.534;2023-07-02T10:17:25;98170.19;;;22.36;26.89
63321;BME280;49449;48.800;9.534;2023-07-02T10:19:54;98173.22;;;22.52;27.05
63321;BME280;49449;48.800;9.534;2023-07-02T10:22:24;98169.28;;;22.67;27.42
63321;BME280;49449;48.800;9.534;2023-07-02T10:24:53;98165.00;;;22.48;27.76
63321;BME280;49449;48.800;9.534;2023-07-02T10:27:32;98169.75;;;22.69;27.65
63321;BME280;49449;48.800;9.534;2023-07-02T10:30:01;98177.38;;;22.76;26.20
63321;BME280;49449;48.800;9.534;2023-07-02T10:32:29;98162.81;;;22.77;27.03
63321;BME280;49449;48.800;9.534;2023-07-02T10:34:57;98154.22;;;22.75;26.37
63321;BME280;49449;48.800;9.534;2023-07-02T10:37:26;98166.63;;;22.76;26.45
63321;BME280;49449;48.800;9.534;2023-07-02T10:39:55;98162.94;;;22.72;26.71
63321;BME280;49449;48.800;9.534;2023-07-02T10:42:24;98165.31;;;22.64;26.49
63321;BME280;49449;48.800;9.534;2023-07-02T10:44:52;98156.13;;;22.74;26.30
63321;BME280;49449;48.800;9.534;2023-07-02T10:47:20;98161.69;;;22.86;26.23
63321;BME280;49449;48.800;9.534;2023-07-02T10:49:48;98154.25;;;22.92;26.06
63321;BME280;49449;48.800;9.534;2023-07-02T10:52:15;98161.50;;;23.09;26.16
63321;BME280;49449;48.800;9.534;2023-07-02T10:54:46;98160.19;;;23.33;26.21
63321;BME280;49449;48.800;9.534;2023-07-02T10:57:17;98164.78;;;23.32;25.72
63321;BME280;49449;48.800;9.534;2023-07-02T10:59:48;98159.41;;;23.23;25.84
63321;BME280;49449;48.800;9.534;2023-07-02T11:02:17;98158.13;;;23.30;26.22
63321;BME280;49449;48.800;9.534;2023-07-02T11:04:45;98162.56;;;23.25;26.07
63321;BME280;49449;48.800;9.534;2023-07-02T11:07:14;98163.19;;;23.31;26.20
63321;BME280;49449;48.800;9.534;2023-07-02T11:09:49;98159.09;;;23.25;26.21
63321;BME280;49449;48.800;9.534;2023-07-02T11:12:17;98162.56;;;23.25;26.23
63321;BME280;49449;48.800;9.534;2023-07-02T11:14:45;98155.63;;;23.16;26.27
63321;BME280;49449;48.800;9.534;2023-07-02T11:17:14;98153.44;;;23.09;26.26
63321;BME280;49449;48.800;9.534;2023-07-02T11:19:50;98159.00;;;22.95;26.64
63321;BME280;49449;48.800;9.534;2023-07-02T11:22:18;98159.63;;;23.01;25.70
63321;BME280;49449;48.800;9.534;2023-07-02T11:24:46;98158.16;;;23.12;26.15
63321;BME280;49449;48.800;9.534;2023-07-02T11:27:21;98157.06;;;23.04;26.20
63321;BME280;49449;48.800;9.534;2023-07-02T11:29:59;98153.72;;;23.16;26.34
63321;BME280;49449;48.800;9.534;2023-07-02T11:32:28;98151.00;;;23.25;26.14
63321;BME280;49449;48.800;9.534;2023-07-02T11:34:56;98143.41;;;23.27;26.13
63321;BME280;49449;48.800;9.534;2023-07-02T11:37:23;98145.09;;;23.32;26.31
63321;BME280;49449;48.800;9.534;2023-07-02T11:39:52;98154.00;;;23.41;25.99
63321;BME280;49449;48.800;9.534;2023-07-02T11:42:20;98136.06;;;23.45;25.13
63321;BME280;49449;48.800;9.534;2023-07-02T11:44:48;98138.22;;;23.60;24.31
63321;BME280;49449;48.800;9.534;2023-07-02T11:47:16;98138.56;;;23.59;24.66
63321;BME280;49449;48.800;9.534;2023-07-02T11:49:45;98132.22;;;23.55;24.63
63321;BME280;49449;48.800;9.534;2023-07-02T11:52:13;98133.56;;;23.40;24.14
63321;BME280;49449;48.800;9.534;2023-07-02T11:54:42;98134.47;;;23.44;24.79
63321;BME280;49449;48.800;9.534;2023-07-02T11:57:09;98124.38;;;23.41;24.52
63321;BME280;49449;48.800;9.534;2023-07-02T11:59:37;98126.00;;;23.63;24.84
63321;BME280;49449;48.800;9.534;2023-07-02T12:02:05;98121.88;;;23.66;25.66
63321;BME280;49449;48.800;9.534;2023-07-02T12:04:33;98121.84;;;23.74;24.97
63321;BME280;49449;48.800;9.534;2023-07-02T12:07:02;98114.56;;;23.66;25.08
63321;BME280;49449;48.800;9.534;2023-07-02T12:09:31;98108.63;;;23.81;24.53
63321;BME280;49449;48.800;9.534;2023-07-02T12:11:58;98112.81;;;24.00;25.06
63321;BME280;49449;48.800;9.534;2023-07-02T12:14:26;98116.56;;;24.08;24.66
63321;BME280;49449;48.800;9.534;2023-07-02T12:16:54;98118.16;;;24.09;23.86
63321;BME280;49449;48.800;9.534;2023-07-02T12:19:22;98106.09;;;24.27;24.02
63321;BME280;49449;48.800;9.534;2023-07-02T12:21:50;98115.97;;;24.23;23.44
63321;BME280;49449;48.800;9.534;2023-07-02T12:24:19;98120.34;;;24.15;23.50
63321;BME280;49449;48.800;9.534;2023-07-02T12:26:46;98118.41;;;24.16;24.20
63321;BME280;49449;48.800;9.534;2023-07-02T12:29:14;98120.31;;;23.94;24.20
63321;BME280;49449;48.800;9.534;2023-07-02T12:31:42;98113.13;;;23.98;24.34
63321;BME280;49449;48.800;9.534;2023-07-02T12:34:10;98106.06;;;23.85;24.09
63321;BME280;49449;48.800;9.534;2023-07-02T12:36:37;98107.03;;;23.80;24.12
63321;BME280;49449;48.800;9.534;2023-07-02T12:39:05;98100.16;;;23.62;24.00
63321;BME280;49449;48.800;9.534;2023-07-02T12:41:34;98107.13;;;23.63;23.92
63321;BME280;49449;48.800;9.534;2023-07-02T12:44:02;98112.41;;;23.51;24.22
63321;BME280;49449;48.800;9.534;2023-07-02T12:46:30;98108.94;;;23.80;23.70
63321;BME280;49449;48.800;9.534;2023-07-02T12:48:58;98108.06;;;23.97;23.62
63321;BME280;49449;48.800;9.534;2023-07-02T12:51:26;98108.44;;;23.87;24.09
63321;BME280;49449;48.800;9.534;2023-07-02T12:53:53;98110.25;;;24.04;23.76
63321;BME280;49449;48.800;9.534;2023-07-02T12:56:21;98112.06;;;23.61;23.66
63321;BME280;49449;48.800;9.534;2023-07-02T12:58:50;98109.63;;;23.68;23.93
63321;BME280;49449;48.800;9.534;2023-07-02T13:01:18;98116.38;;;23.83;24.18
63321;BME280;49449;48.800;9.534;2023-07-02T13:03:47;98117.44;;;23.61;23.69
63321;BME280;49449;48.800;9.534;2023-07-02T13:06:15;98106.06;;;23.85;23.94